createdAt,value
2023-01-12T00:00:09.630Z,87.79
2023-01-12T00:01:09.557Z,87.69
2023-01-12T00:02:09.593Z,87.69
2023-01-12T00:03:09.519Z,87.79
2023-01-12T00:04:09.599Z,87.69
2023-01-12T00:05:09.512Z,87.38
2023-01-12T00:06:09.512Z,87.07
2023-01-12T00:07:09.503Z,87.07
2023-01-12T00:08:09.472Z,87.07
2023-01-12T00:09:09.435Z,87.07
2023-01-12T00:10:09.468Z,87.07
2023-01-12T00:11:09.414Z,87.18
2023-01-12T00:12:09.425Z,86.97
2023-01-12T00:13:09.404Z,86.97
2023-01-12T00:14:09.459Z,86.83
2023-01-12T00:15:09.392Z,86.72
2023-01-12T00:16:09.388Z,86.72
2023-01-12T00:17:09.376Z,86.87
2023-01-12T00:18:09.353Z,86.72
2023-01-12T00:19:09.309Z,86.72
2023-01-12T00:20:09.352Z,86.87
2023-01-12T00:21:09.284Z,86.97
2023-01-12T00:22:09.296Z,86.87
2023-01-12T00:23:09.262Z,86.42
2023-01-12T00:24:09.269Z,86.42
2023-01-12T00:25:09.275Z,86.62
2023-01-12T00:26:09.245Z,86.42
2023-01-12T00:27:09.206Z,86.42
2023-01-12T00:28:09.223Z,86.52
2023-01-12T00:29:09.187Z,86.42
2023-01-12T00:30:09.226Z,86.32
2023-01-12T00:31:10.000Z,86.52
2023-01-12T00:32:09.153Z,86.42
2023-01-12T00:33:09.145Z,86.52
2023-01-12T00:34:09.142Z,86.42
2023-01-12T00:35:09.112Z,86.21
2023-01-12T00:36:09.120Z,86.11
2023-01-12T00:37:09.112Z,86.00
2023-01-12T00:38:09.096Z,86.00
2023-01-12T00:39:09.051Z,85.90
2023-01-12T00:40:09.091Z,85.80
2023-01-12T00:41:09.017Z,85.70
2023-01-12T00:42:09.049Z,85.55
2023-01-12T00:43:09.000Z,85.55
2023-01-12T00:44:09.003Z,85.66
2023-01-12T00:45:08.988Z,85.76
2023-01-12T00:46:09.012Z,85.66
2023-01-12T00:47:08.932Z,85.86
2023-01-12T00:48:08.955Z,85.97
2023-01-12T00:49:08.920Z,86.11
2023-01-12T00:50:08.955Z,86.11
2023-01-12T00:51:08.884Z,85.90
2023-01-12T00:52:11.369Z,85.90
2023-01-12T00:53:08.860Z,86.07
2023-01-12T00:54:08.899Z,85.86
2023-01-12T00:55:08.846Z,85.66
2023-01-12T00:56:08.862Z,85.66
2023-01-12T00:57:08.805Z,85.86
2023-01-12T00:58:08.834Z,85.76
2023-01-12T00:59:08.786Z,85.76
2023-01-12T01:00:08.793Z,85.66
2023-01-12T01:01:08.859Z,85.76
2023-01-12T01:02:08.844Z,85.66
2023-01-12T01:03:08.775Z,85.66
2023-01-12T01:04:08.747Z,85.55
2023-01-12T01:05:08.730Z,85.46
2023-01-12T01:06:08.725Z,85.46
2023-01-12T01:07:08.699Z,85.55
2023-01-12T01:08:08.693Z,85.46
2023-01-12T01:09:08.658Z,85.35
2023-01-12T01:10:08.694Z,85.46
2023-01-12T01:11:08.620Z,85.46
2023-01-12T01:12:08.631Z,85.35
2023-01-12T01:13:08.616Z,85.35
2023-01-12T01:14:08.632Z,85.25
2023-01-12T01:15:08.566Z,85.55
2023-01-12T01:16:08.735Z,85.66
2023-01-12T01:17:08.557Z,85.66
2023-01-12T01:18:08.602Z,85.86
2023-01-12T01:19:08.546Z,85.86
2023-01-12T01:20:08.534Z,85.97
2023-01-12T01:21:08.522Z,85.76
2023-01-12T01:22:08.500Z,85.86
2023-01-12T01:23:08.490Z,85.97
2023-01-12T01:24:08.488Z,86.07
2023-01-12T01:25:08.473Z,86.07
2023-01-12T01:26:08.464Z,86.17
2023-01-12T01:27:08.455Z,86.17
2023-01-12T01:28:08.456Z,86.17
2023-01-12T01:29:08.395Z,86.17
2023-01-12T01:30:08.425Z,86.17
2023-01-12T01:31:08.409Z,86.38
2023-01-12T01:32:08.365Z,86.48
2023-01-12T01:33:08.380Z,86.48
2023-01-12T01:34:08.321Z,86.48
2023-01-12T01:35:08.350Z,86.38
2023-01-12T01:36:08.304Z,86.48
2023-01-12T01:37:08.303Z,86.38
2023-01-12T01:38:08.267Z,86.48
2023-01-12T01:39:08.302Z,86.58
2023-01-12T01:40:08.258Z,86.68
2023-01-12T01:41:08.257Z,86.89
2023-01-12T01:42:08.226Z,86.99
2023-01-12T01:43:08.245Z,86.68
2023-01-12T01:44:08.220Z,86.68
2023-01-12T01:45:08.217Z,86.99
2023-01-12T01:46:08.229Z,86.89
2023-01-12T01:47:08.190Z,86.89
2023-01-12T01:48:08.141Z,86.89
2023-01-12T01:49:08.177Z,86.99
2023-01-12T01:50:08.110Z,86.99
2023-01-12T01:51:08.126Z,87.20
2023-01-12T01:52:08.101Z,86.99
2023-01-12T01:53:08.105Z,86.99
2023-01-12T01:54:08.056Z,87.30
2023-01-12T01:55:08.082Z,87.30
2023-01-12T01:56:08.031Z,86.99
2023-01-12T01:57:08.062Z,87.20
2023-01-12T01:58:08.003Z,87.20
2023-01-12T01:59:08.008Z,87.20
2023-01-12T02:00:07.993Z,87.20
2023-01-12T02:01:08.085Z,87.20
2023-01-12T02:02:08.067Z,87.20
2023-01-12T02:03:08.038Z,87.10
2023-01-12T02:04:07.927Z,86.99
2023-01-12T02:05:07.957Z,86.99
2023-01-12T02:06:07.918Z,86.99
2023-01-12T02:07:07.931Z,86.79
2023-01-12T02:08:07.903Z,86.89
2023-01-12T02:09:07.920Z,86.68
2023-01-12T02:10:07.840Z,86.68
2023-01-12T02:11:07.880Z,86.68
2023-01-12T02:12:07.839Z,86.48
2023-01-12T02:13:07.861Z,86.38
2023-01-12T02:14:07.803Z,86.48
2023-01-12T02:15:07.840Z,86.48
2023-01-12T02:16:07.767Z,86.68
2023-01-12T02:17:07.805Z,86.79
2023-01-12T02:18:07.744Z,86.68
2023-01-12T02:19:07.755Z,86.58
2023-01-12T02:20:07.729Z,86.68
2023-01-12T02:21:07.731Z,86.89
2023-01-12T02:22:07.678Z,86.99
2023-01-12T02:23:07.716Z,86.99
2023-01-12T02:24:07.654Z,86.99
2023-01-12T02:25:07.705Z,86.99
2023-01-12T02:26:07.634Z,87.20
2023-01-12T02:27:07.640Z,87.10
2023-01-12T02:28:07.624Z,87.10
2023-01-12T02:29:07.626Z,87.10
2023-01-12T02:30:07.615Z,87.20
2023-01-12T02:31:07.601Z,87.10
2023-01-12T02:32:07.549Z,86.99
2023-01-12T02:33:07.603Z,86.99
2023-01-12T02:34:07.533Z,86.99
2023-01-12T02:35:07.565Z,87.10
2023-01-12T02:36:07.501Z,86.99
2023-01-12T02:37:07.509Z,87.20
2023-01-12T02:38:07.499Z,87.20
2023-01-12T02:39:07.496Z,86.99
2023-01-12T02:40:07.503Z,87.10
2023-01-12T02:41:07.461Z,86.99
2023-01-12T02:42:07.429Z,86.99
2023-01-12T02:43:07.449Z,86.89
2023-01-12T02:44:07.400Z,86.89
2023-01-12T02:45:07.865Z,86.79
2023-01-12T02:46:07.383Z,86.89
2023-01-12T02:47:07.382Z,87.10
2023-01-12T02:48:07.360Z,87.04
2023-01-12T02:49:07.354Z,87.04
2023-01-12T02:50:07.344Z,87.13
2023-01-12T02:51:07.353Z,87.04
2023-01-12T02:52:07.288Z,87.13
2023-01-12T02:53:07.370Z,87.13
2023-01-12T02:54:07.277Z,87.13
2023-01-12T02:55:07.285Z,87.24
2023-01-12T02:56:07.261Z,87.24
2023-01-12T02:57:07.247Z,87.13
2023-01-12T02:58:07.220Z,87.34
2023-01-12T02:59:07.240Z,87.34
2023-01-12T03:00:07.193Z,87.45
2023-01-12T03:01:07.371Z,87.24
2023-01-12T03:02:07.166Z,87.34
2023-01-12T03:03:07.237Z,87.55
2023-01-12T03:04:07.152Z,87.55
2023-01-12T03:05:07.147Z,87.45
2023-01-12T03:06:07.118Z,87.55
2023-01-12T03:07:07.123Z,87.75
2023-01-12T03:08:07.150Z,87.85
2023-01-12T03:09:07.104Z,87.65
2023-01-12T03:10:07.062Z,87.55
2023-01-12T03:11:07.075Z,87.65
2023-01-12T03:12:07.027Z,87.55
2023-01-12T03:13:07.044Z,87.55
2023-01-12T03:14:07.024Z,87.55
2023-01-12T03:15:07.028Z,87.55
2023-01-12T03:16:07.037Z,87.34
2023-01-12T03:17:06.982Z,87.34
2023-01-12T03:18:06.999Z,87.24
2023-01-12T03:19:06.995Z,87.24
2023-01-12T03:20:06.937Z,87.34
2023-01-12T03:21:06.946Z,87.45
2023-01-12T03:22:06.904Z,87.45
2023-01-12T03:23:06.927Z,87.45
2023-01-12T03:24:06.876Z,87.55
2023-01-12T03:25:06.875Z,87.55
2023-01-12T03:26:06.880Z,87.55
2023-01-12T03:27:06.853Z,87.65
2023-01-12T03:28:06.818Z,87.85
2023-01-12T03:29:06.836Z,87.85
2023-01-12T03:30:06.805Z,87.85
2023-01-12T03:31:06.838Z,87.85
2023-01-12T03:32:06.774Z,87.75
2023-01-12T03:33:06.784Z,87.55
2023-01-12T03:34:06.749Z,87.55
2023-01-12T03:35:06.786Z,87.45
2023-01-12T03:36:06.728Z,87.34
2023-01-12T03:37:06.730Z,87.13
2023-01-12T03:38:06.694Z,87.24
2023-01-12T03:39:06.700Z,87.24
2023-01-12T03:40:06.686Z,87.13
2023-01-12T03:41:06.667Z,87.13
2023-01-12T03:42:06.663Z,87.13
2023-01-12T03:43:06.710Z,87.13
2023-01-12T03:44:06.640Z,86.79
2023-01-12T03:45:06.624Z,86.58
2023-01-12T03:46:06.576Z,86.68
2023-01-12T03:47:06.620Z,86.58
2023-01-12T03:48:06.565Z,86.58
2023-01-12T03:49:06.562Z,86.58
2023-01-12T03:50:06.547Z,86.79
2023-01-12T03:51:06.557Z,86.79
2023-01-12T03:52:06.517Z,86.89
2023-01-12T03:53:06.537Z,86.89
2023-01-12T03:54:06.481Z,86.79
2023-01-12T03:55:06.480Z,86.79
2023-01-12T03:56:06.461Z,86.79
2023-01-12T03:57:06.508Z,86.68
2023-01-12T03:58:06.430Z,86.68
2023-01-12T03:59:06.466Z,86.58
2023-01-12T04:00:06.414Z,86.68
2023-01-12T04:01:06.496Z,86.48
2023-01-12T04:02:06.365Z,86.27
2023-01-12T04:03:06.457Z,86.17
2023-01-12T04:04:06.354Z,86.17
2023-01-12T04:05:06.361Z,86.07
2023-01-12T04:06:06.324Z,86.17
2023-01-12T04:07:06.346Z,86.27
2023-01-12T04:08:06.309Z,86.17
2023-01-12T04:09:06.315Z,86.17
2023-01-12T04:10:06.312Z,86.27
2023-01-12T04:11:06.291Z,86.17
2023-01-12T04:12:06.256Z,86.07
2023-01-12T04:13:06.249Z,86.07
2023-01-12T04:14:06.240Z,86.17
2023-01-12T04:15:06.261Z,86.17
2023-01-12T04:16:06.274Z,86.17
2023-01-12T04:17:06.215Z,86.38
2023-01-12T04:18:06.163Z,86.38
2023-01-12T04:19:06.191Z,86.38
2023-01-12T04:20:06.132Z,86.48
2023-01-12T04:21:06.144Z,86.48
2023-01-12T04:22:06.127Z,86.48
2023-01-12T04:23:06.135Z,86.48
2023-01-12T04:24:06.088Z,86.48
2023-01-12T04:25:08.615Z,86.79
2023-01-12T04:26:06.048Z,86.68
2023-01-12T04:27:06.071Z,86.79
2023-01-12T04:28:06.029Z,86.99
2023-01-12T04:29:06.055Z,87.10
2023-01-12T04:30:06.037Z,87.10
2023-01-12T04:31:06.011Z,86.99
2023-01-12T04:32:05.972Z,87.20
2023-01-12T04:33:06.005Z,87.10
2023-01-12T04:34:05.978Z,87.20
2023-01-12T04:35:05.977Z,87.10
2023-01-12T04:36:05.924Z,87.20
2023-01-12T04:37:05.971Z,87.51
2023-01-12T04:38:05.910Z,87.51
2023-01-12T04:39:05.901Z,87.51
2023-01-12T04:40:05.879Z,87.61
2023-01-12T04:41:05.923Z,87.61
2023-01-12T04:42:05.850Z,87.61
2023-01-12T04:43:07.836Z,87.71
2023-01-12T04:44:05.816Z,87.75
2023-01-12T04:45:05.824Z,87.92
2023-01-12T04:46:05.832Z,88.06
2023-01-12T04:47:05.801Z,88.17
2023-01-12T04:48:05.775Z,88.17
2023-01-12T04:49:05.787Z,88.27
2023-01-12T04:50:05.737Z,88.27
2023-01-12T04:51:05.742Z,88.47
2023-01-12T04:52:05.753Z,88.68
2023-01-12T04:53:05.793Z,89.09
2023-01-12T04:54:05.711Z,89.19
2023-01-12T04:55:05.700Z,89.40
2023-01-12T04:56:05.661Z,89.70
2023-01-12T04:57:05.676Z,89.91
2023-01-12T04:58:05.671Z,90.22
2023-01-12T04:59:05.648Z,90.53
2023-01-12T05:00:05.605Z,90.73
2023-01-12T05:01:05.666Z,91.19
2023-01-12T05:02:05.623Z,91.39
2023-01-12T05:03:05.636Z,91.80
2023-01-12T05:04:07.722Z,91.80
2023-01-12T05:05:05.613Z,92.21
2023-01-12T05:06:05.528Z,92.21
2023-01-12T05:07:05.540Z,92.21
2023-01-12T05:08:05.527Z,92.52
2023-01-12T05:09:05.518Z,92.52
2023-01-12T05:10:05.490Z,92.73
2023-01-12T05:11:05.488Z,92.63
2023-01-12T05:12:05.442Z,92.83
2023-01-12T05:13:05.472Z,93.04
2023-01-12T05:14:05.424Z,93.24
2023-01-12T05:15:05.466Z,93.44
2023-01-12T05:16:05.416Z,93.24
2023-01-12T05:17:05.431Z,93.18
2023-01-12T05:18:05.368Z,93.39
2023-01-12T05:19:05.406Z,93.29
2023-01-12T05:20:05.375Z,93.08
2023-01-12T05:21:05.358Z,92.97
2023-01-12T05:22:05.324Z,92.97
2023-01-12T05:23:05.348Z,92.87
2023-01-12T05:24:05.282Z,92.73
2023-01-12T05:25:05.331Z,92.77
2023-01-12T05:26:05.284Z,92.73
2023-01-12T05:27:05.302Z,92.63
2023-01-12T05:28:05.275Z,92.63
2023-01-12T05:29:05.262Z,92.57
2023-01-12T05:30:05.206Z,92.21
2023-01-12T05:31:05.305Z,92.01
2023-01-12T05:32:05.185Z,91.91
2023-01-12T05:33:05.211Z,91.91
2023-01-12T05:34:05.161Z,91.60
2023-01-12T05:35:05.175Z,91.49
2023-01-12T05:36:05.156Z,91.39
2023-01-12T05:37:05.152Z,91.19
2023-01-12T05:38:05.105Z,90.98
2023-01-12T05:39:05.136Z,90.78
2023-01-12T05:40:05.109Z,90.57
2023-01-12T05:41:05.094Z,90.47
2023-01-12T05:42:05.063Z,90.36
2023-01-12T05:43:05.054Z,90.26
2023-01-12T05:44:05.041Z,89.95
2023-01-12T05:45:05.069Z,89.85
2023-01-12T05:46:05.069Z,89.75
2023-01-12T05:47:05.018Z,89.50
2023-01-12T05:48:05.029Z,89.50
2023-01-12T05:49:04.981Z,89.40
2023-01-12T05:50:05.003Z,89.40
2023-01-12T05:51:04.946Z,88.89
2023-01-12T05:52:04.949Z,88.68
2023-01-12T05:53:04.931Z,88.98
2023-01-12T05:54:04.948Z,88.89
2023-01-12T05:55:04.921Z,88.89
2023-01-12T05:56:04.914Z,88.78
2023-01-12T05:57:04.871Z,88.78
2023-01-12T05:58:04.895Z,88.68
2023-01-12T05:59:04.854Z,88.78
2023-01-12T06:00:04.842Z,88.89
2023-01-12T06:01:04.870Z,88.57
2023-01-12T06:02:04.912Z,88.37
2023-01-12T06:03:04.786Z,88.27
2023-01-12T06:04:04.818Z,88.06
2023-01-12T06:05:04.832Z,87.85
2023-01-12T06:06:04.794Z,87.85
2023-01-12T06:07:04.751Z,88.06
2023-01-12T06:08:04.727Z,87.96
2023-01-12T06:09:04.731Z,87.96
2023-01-12T06:10:04.712Z,88.06
2023-01-12T06:11:04.706Z,87.65
2023-01-12T06:12:04.700Z,87.34
2023-01-12T06:13:04.660Z,87.40
2023-01-12T06:14:04.673Z,87.51
2023-01-12T06:15:04.676Z,87.40
2023-01-12T06:16:04.691Z,87.20
2023-01-12T06:17:04.612Z,87.51
2023-01-12T06:18:04.635Z,87.10
2023-01-12T06:19:04.570Z,87.30
2023-01-12T06:20:04.585Z,87.20
2023-01-12T06:21:04.577Z,87.20
2023-01-12T06:22:04.549Z,87.51
2023-01-12T06:23:04.507Z,87.51
2023-01-12T06:24:04.545Z,87.20
2023-01-12T06:25:04.492Z,87.10
2023-01-12T06:26:04.526Z,87.20
2023-01-12T06:27:04.468Z,86.99
2023-01-12T06:28:04.497Z,86.79
2023-01-12T06:29:04.450Z,86.79
2023-01-12T06:30:04.505Z,86.79
2023-01-12T06:31:04.449Z,86.79
2023-01-12T06:32:04.451Z,86.99
2023-01-12T06:33:04.401Z,86.89
2023-01-12T06:34:04.402Z,86.89
2023-01-12T06:35:18.014Z,86.79
2023-01-12T06:36:04.414Z,86.58
2023-01-12T06:37:04.351Z,86.38
2023-01-12T06:38:04.350Z,86.24
2023-01-12T06:39:04.323Z,86.33
2023-01-12T06:40:04.329Z,86.44
2023-01-12T06:41:04.348Z,86.58
2023-01-12T06:42:04.325Z,86.44
2023-01-12T06:43:04.266Z,86.33
2023-01-12T06:44:04.272Z,86.33
2023-01-12T06:45:04.228Z,86.24
2023-01-12T06:46:04.275Z,86.24
2023-01-12T06:47:04.258Z,86.13
2023-01-12T06:48:04.231Z,86.24
2023-01-12T06:49:04.213Z,86.24
2023-01-12T06:50:04.179Z,86.13
2023-01-12T06:51:04.147Z,86.03
2023-01-12T06:52:04.209Z,86.13
2023-01-12T06:53:04.169Z,86.03
2023-01-12T06:54:04.152Z,85.93
2023-01-12T06:55:04.120Z,86.03
2023-01-12T06:56:04.121Z,85.93
2023-01-12T06:57:04.093Z,85.82
2023-01-12T06:58:04.088Z,85.41
2023-01-12T06:59:04.042Z,85.62
2023-01-12T07:00:04.052Z,85.72
2023-01-12T07:01:04.051Z,85.31
2023-01-12T07:02:04.058Z,85.31
2023-01-12T07:03:04.006Z,85.52
2023-01-12T07:04:04.045Z,85.31
2023-01-12T07:05:03.973Z,85.41
2023-01-12T07:06:04.007Z,85.41
2023-01-12T07:07:03.951Z,85.41
2023-01-12T07:08:03.989Z,85.41
2023-01-12T07:09:03.920Z,85.21
2023-01-12T07:10:03.936Z,85.41
2023-01-12T07:11:03.905Z,85.62
2023-01-12T07:12:03.906Z,85.62
2023-01-12T07:13:03.865Z,85.52
2023-01-12T07:14:03.901Z,85.41
2023-01-12T07:15:03.856Z,85.52
2023-01-12T07:16:03.855Z,85.11
2023-01-12T07:17:03.834Z,85.11
2023-01-12T07:18:03.835Z,85.11
2023-01-12T07:19:03.821Z,84.90
2023-01-12T07:20:03.830Z,84.90
2023-01-12T07:21:03.750Z,85.00
2023-01-12T07:22:03.774Z,85.00
2023-01-12T07:23:03.731Z,84.80
2023-01-12T07:24:03.779Z,84.90
2023-01-12T07:25:03.711Z,85.00
2023-01-12T07:26:03.717Z,85.21
2023-01-12T07:27:03.699Z,85.00
2023-01-12T07:28:03.689Z,85.11
2023-01-12T07:29:03.666Z,84.90
2023-01-12T07:30:03.669Z,85.00
2023-01-12T07:31:03.654Z,85.00
2023-01-12T07:32:03.639Z,85.21
2023-01-12T07:33:03.584Z,85.00
2023-01-12T07:34:03.611Z,84.86
2023-01-12T07:35:03.602Z,85.00
2023-01-12T07:36:03.585Z,85.31
2023-01-12T07:37:03.555Z,85.00
2023-01-12T07:38:03.550Z,84.90
2023-01-12T07:39:03.512Z,85.21
2023-01-12T07:40:03.560Z,85.21
2023-01-12T07:41:03.500Z,85.21
2023-01-12T07:42:03.539Z,85.21
2023-01-12T07:43:03.470Z,85.21
2023-01-12T07:44:03.494Z,85.27
2023-01-12T07:45:03.451Z,85.21
2023-01-12T07:46:03.519Z,85.11
2023-01-12T07:47:03.412Z,85.21
2023-01-12T07:48:03.461Z,85.17
2023-01-12T07:49:03.393Z,85.06
2023-01-12T07:50:03.395Z,85.06
2023-01-12T07:51:03.385Z,85.06
2023-01-12T07:52:03.373Z,85.27
2023-01-12T07:53:03.329Z,85.17
2023-01-12T07:54:03.351Z,85.06
2023-01-12T07:55:03.320Z,85.38
2023-01-12T07:56:03.349Z,85.38
2023-01-12T07:57:03.320Z,85.27
2023-01-12T07:58:03.366Z,85.38
2023-01-12T07:59:03.265Z,85.47
2023-01-12T08:00:03.263Z,85.68
2023-01-12T08:01:03.264Z,85.17
2023-01-12T08:02:03.283Z,85.17
2023-01-12T08:03:03.197Z,85.06
2023-01-12T08:04:03.237Z,85.17
2023-01-12T08:05:03.178Z,85.27
2023-01-12T08:06:03.198Z,85.06
2023-01-12T08:07:03.176Z,85.17
2023-01-12T08:08:03.738Z,85.17
2023-01-12T08:09:03.141Z,85.27
2023-01-12T08:10:03.163Z,85.58
2023-01-12T08:11:03.113Z,85.78
2023-01-12T08:12:03.206Z,85.58
2023-01-12T08:13:03.115Z,85.89
2023-01-12T08:14:03.094Z,85.78
2023-01-12T08:15:03.119Z,85.68
2023-01-12T08:16:03.085Z,85.47
2023-01-12T08:17:03.028Z,85.58
2023-01-12T08:18:05.732Z,85.58
2023-01-12T08:19:03.013Z,85.58
2023-01-12T08:20:02.999Z,85.47
2023-01-12T08:21:02.996Z,85.89
2023-01-12T08:22:02.980Z,86.09
2023-01-12T08:23:02.940Z,85.89
2023-01-12T08:24:02.979Z,85.78
2023-01-12T08:25:02.921Z,85.68
2023-01-12T08:26:02.949Z,85.58
2023-01-12T08:27:02.929Z,85.47
2023-01-12T08:28:02.889Z,85.38
2023-01-12T08:29:02.858Z,85.47
2023-01-12T08:30:02.892Z,85.17
2023-01-12T08:31:02.871Z,85.38
2023-01-12T08:32:04.583Z,85.38
2023-01-12T08:33:02.881Z,85.17
2023-01-12T08:34:02.817Z,85.06
2023-01-12T08:35:02.804Z,84.86
2023-01-12T08:36:02.801Z,84.82
2023-01-12T08:37:02.756Z,84.82
2023-01-12T08:38:02.765Z,84.72
2023-01-12T08:39:02.735Z,84.41
2023-01-12T08:40:02.767Z,84.61
2023-01-12T08:41:02.719Z,84.72
2023-01-12T08:42:03.001Z,84.72
2023-01-12T08:43:02.728Z,84.72
2023-01-12T08:44:02.682Z,84.72
2023-01-12T08:45:02.650Z,84.61
2023-01-12T08:46:02.687Z,84.61
2023-01-12T08:47:02.664Z,84.72
2023-01-12T08:48:02.638Z,84.52
2023-01-12T08:49:02.590Z,84.72
2023-01-12T08:50:02.606Z,84.61
2023-01-12T08:51:02.955Z,84.92
2023-01-12T08:52:02.621Z,84.82
2023-01-12T08:53:02.543Z,85.03
2023-01-12T08:54:02.564Z,85.03
2023-01-12T08:55:02.511Z,84.82
2023-01-12T08:56:02.573Z,84.82
2023-01-12T08:57:02.500Z,84.82
2023-01-12T08:58:02.502Z,84.82
2023-01-12T08:59:02.454Z,84.82
2023-01-12T09:00:02.989Z,84.92
2023-01-12T09:01:02.616Z,85.03
2023-01-12T09:02:02.605Z,84.92
2023-01-12T09:03:02.405Z,84.72
2023-01-12T09:04:02.416Z,85.03
2023-01-12T09:05:02.383Z,85.13
2023-01-12T09:06:02.428Z,84.82
2023-01-12T09:07:02.371Z,84.61
2023-01-12T09:08:02.373Z,84.41
2023-01-12T09:09:02.475Z,84.61
2023-01-12T09:10:02.328Z,84.52
2023-01-12T09:11:02.319Z,84.31
2023-01-12T09:12:02.299Z,84.47
2023-01-12T09:13:02.341Z,84.17
2023-01-12T09:14:02.255Z,84.06
2023-01-12T09:15:02.262Z,84.37
2023-01-12T09:16:12.262Z,84.06
2023-01-12T09:17:02.343Z,84.06
2023-01-12T09:18:02.313Z,83.96
2023-01-12T09:19:02.220Z,84.06
2023-01-12T09:20:02.167Z,84.27
2023-01-12T09:21:02.255Z,84.17
2023-01-12T09:22:02.180Z,84.06
2023-01-12T09:23:02.198Z,84.17
2023-01-12T09:24:02.145Z,84.27
2023-01-12T09:25:02.150Z,84.58
2023-01-12T09:26:02.102Z,84.78
2023-01-12T09:27:02.960Z,84.88
2023-01-12T09:28:02.143Z,84.47
2023-01-12T09:29:02.105Z,84.37
2023-01-12T09:30:02.076Z,84.37
2023-01-12T09:31:02.054Z,84.47
2023-01-12T09:32:02.071Z,84.27
2023-01-12T09:33:02.098Z,84.47
2023-01-12T09:34:02.024Z,84.68
2023-01-12T09:35:02.018Z,84.58
2023-01-12T09:36:02.548Z,84.58
2023-01-12T09:37:01.987Z,84.58
2023-01-12T09:38:01.954Z,84.47
2023-01-12T09:39:02.015Z,84.58
2023-01-12T09:40:01.940Z,84.37
2023-01-12T09:41:02.435Z,84.47
2023-01-12T09:42:01.895Z,84.37
2023-01-12T09:43:01.898Z,84.27
2023-01-12T09:44:01.877Z,84.47
2023-01-12T09:45:02.105Z,84.47
2023-01-12T09:46:01.891Z,84.68
2023-01-12T09:47:01.853Z,84.78
2023-01-12T09:48:01.815Z,84.68
2023-01-12T09:49:01.831Z,84.06
2023-01-12T09:50:09.172Z,84.06
2023-01-12T09:51:01.798Z,83.76
2023-01-12T09:52:01.755Z,83.76
2023-01-12T09:53:01.781Z,83.45
2023-01-12T09:54:01.854Z,83.55
2023-01-12T09:55:01.756Z,83.45
2023-01-12T09:56:01.731Z,83.25
2023-01-12T09:57:01.711Z,83.34
2023-01-12T09:58:01.673Z,82.93
2023-01-12T09:59:01.702Z,82.59
2023-01-12T10:00:01.673Z,82.69
2023-01-12T10:01:01.702Z,82.39
2023-01-12T10:02:01.759Z,82.39
2023-01-12T10:03:01.814Z,82.08
2023-01-12T10:04:01.636Z,81.87
2023-01-12T10:05:01.599Z,82.28
2023-01-12T10:06:01.581Z,82.08
2023-01-12T10:07:01.559Z,81.94
2023-01-12T10:08:01.583Z,81.84
2023-01-12T10:09:01.548Z,82.14
2023-01-12T10:10:01.533Z,81.84
2023-01-12T10:11:01.806Z,81.63
2023-01-12T10:12:01.519Z,81.52
2023-01-12T10:13:01.474Z,81.52
2023-01-12T10:14:01.509Z,81.63
2023-01-12T10:15:01.430Z,81.63
2023-01-12T10:16:01.615Z,81.52
2023-01-12T10:17:01.454Z,81.32
2023-01-12T10:18:01.435Z,81.12
2023-01-12T10:19:01.387Z,81.12
2023-01-12T10:20:01.731Z,81.12
2023-01-12T10:21:01.378Z,80.98
2023-01-12T10:22:01.394Z,80.98
2023-01-12T10:23:01.360Z,81.08
2023-01-12T10:24:01.391Z,81.08
2023-01-12T10:25:01.335Z,81.49
2023-01-12T10:26:01.350Z,81.59
2023-01-12T10:27:01.325Z,81.29
2023-01-12T10:28:01.290Z,81.49
2023-01-12T10:29:01.532Z,81.70
2023-01-12T10:30:01.278Z,81.70
2023-01-12T10:31:01.240Z,81.79
2023-01-12T10:32:01.386Z,81.38
2023-01-12T10:33:01.231Z,81.52
2023-01-12T10:34:01.229Z,81.52
2023-01-12T10:35:01.182Z,81.52
2023-01-12T10:36:01.243Z,81.22
2023-01-12T10:37:01.190Z,81.32
2023-01-12T10:38:01.414Z,81.32
2023-01-12T10:39:01.141Z,81.32
2023-01-12T10:40:01.148Z,81.22
2023-01-12T10:41:01.126Z,81.22
2023-01-12T10:42:01.132Z,81.32
2023-01-12T10:43:04.247Z,81.22
2023-01-12T10:44:01.088Z,81.32
2023-01-12T10:45:01.053Z,81.22
2023-01-12T10:46:01.083Z,81.32
2023-01-12T10:47:01.501Z,81.32
2023-01-12T10:48:01.088Z,81.43
2023-01-12T10:49:01.006Z,81.63
2023-01-12T10:50:01.056Z,81.63
2023-01-12T10:51:00.956Z,81.22
2023-01-12T10:52:01.010Z,81.22
2023-01-12T10:53:00.959Z,81.43
2023-01-12T10:54:00.963Z,81.59
2023-01-12T10:55:00.915Z,81.49
2023-01-12T10:56:00.922Z,81.29
2023-01-12T10:57:00.915Z,81.29
2023-01-12T10:58:00.913Z,81.59
2023-01-12T10:59:00.895Z,81.70
2023-01-12T11:00:00.902Z,81.49
2023-01-12T11:01:00.930Z,81.59
2023-01-12T11:02:01.110Z,81.90
2023-01-12T11:03:00.918Z,81.79
2023-01-12T11:04:00.846Z,81.70
2023-01-12T11:05:00.862Z,81.59
2023-01-12T11:06:00.833Z,81.59
2023-01-12T11:07:02.242Z,82.00
2023-01-12T11:08:00.769Z,81.90
2023-01-12T11:09:00.741Z,81.90
2023-01-12T11:10:00.766Z,82.00
2023-01-12T11:11:00.707Z,82.41
2023-01-12T11:12:00.715Z,82.41
2023-01-12T11:13:00.681Z,82.51
2023-01-12T11:14:00.750Z,82.21
2023-01-12T11:15:00.663Z,82.41
2023-01-12T11:16:00.673Z,82.51
2023-01-12T11:17:00.618Z,82.62
2023-01-12T11:18:00.691Z,83.03
2023-01-12T11:19:00.589Z,83.13
2023-01-12T11:20:00.616Z,83.23
2023-01-12T11:21:00.591Z,83.23
2023-01-12T11:22:00.573Z,83.74
2023-01-12T11:23:00.568Z,84.05
2023-01-12T11:24:00.553Z,84.25
2023-01-12T11:25:00.502Z,84.50
2023-01-12T11:26:00.544Z,85.01
2023-01-12T11:27:00.481Z,85.31
2023-01-12T11:28:00.503Z,84.91
2023-01-12T11:29:00.453Z,85.11
2023-01-12T11:30:00.491Z,85.52
2023-01-12T11:31:00.623Z,85.31
2023-01-12T11:32:00.432Z,85.63
2023-01-12T11:33:00.418Z,85.31
2023-01-12T11:34:00.429Z,85.42
2023-01-12T11:35:00.387Z,85.63
2023-01-12T11:36:00.401Z,85.83
2023-01-12T11:37:00.359Z,85.72
2023-01-12T11:38:00.356Z,84.80
2023-01-12T11:39:00.339Z,84.60
2023-01-12T11:40:00.405Z,85.11
2023-01-12T11:41:00.308Z,85.01
2023-01-12T11:42:00.303Z,84.70
2023-01-12T11:43:00.299Z,83.95
2023-01-12T11:44:00.272Z,84.05
2023-01-12T11:45:00.250Z,83.95
2023-01-12T11:46:00.320Z,84.46
2023-01-12T11:47:00.223Z,84.46
2023-01-12T11:48:00.233Z,84.25
2023-01-12T11:49:00.194Z,84.25
2023-01-12T11:50:00.193Z,83.84
2023-01-12T11:51:00.163Z,83.95
2023-01-12T11:52:00.195Z,84.05
2023-01-12T11:53:00.159Z,83.84
2023-01-12T11:54:00.149Z,84.25
2023-01-12T11:55:00.117Z,84.36
2023-01-12T11:56:00.130Z,84.15
2023-01-12T11:57:00.080Z,83.95
2023-01-12T11:58:00.101Z,84.15
2023-01-12T11:59:00.092Z,84.15
2023-01-12T12:00:00.095Z,83.95
2023-01-12T12:01:00.114Z,83.84
2023-01-12T12:02:00.049Z,84.05
2023-01-12T12:03:00.112Z,84.25
2023-01-12T12:04:00.055Z,84.25
2023-01-12T12:04:59.979Z,84.46
2023-01-12T12:06:00.022Z,84.56
2023-01-12T12:06:59.959Z,84.56
2023-01-12T12:07:59.976Z,84.56
2023-01-12T12:08:59.919Z,84.46
2023-01-12T12:09:59.919Z,84.66
2023-01-12T12:10:59.899Z,84.66
2023-01-12T12:11:59.936Z,84.46
2023-01-12T12:12:59.874Z,84.36
2023-01-12T12:13:59.902Z,84.66
2023-01-12T12:14:59.844Z,84.66
2023-01-12T12:15:59.932Z,85.07
2023-01-12T12:16:59.856Z,85.28
2023-01-12T12:17:59.849Z,85.48
2023-01-12T12:18:59.782Z,85.58
2023-01-12T12:19:59.832Z,85.58
2023-01-12T12:20:59.772Z,85.28
2023-01-12T12:21:59.791Z,85.28
2023-01-12T12:22:59.757Z,85.38
2023-01-12T12:23:59.745Z,85.38
2023-01-12T12:24:59.711Z,85.17
2023-01-12T12:25:59.745Z,85.07
2023-01-12T12:26:59.700Z,85.07
2023-01-12T12:27:59.695Z,85.17
2023-01-12T12:28:59.660Z,84.77
2023-01-12T12:29:59.668Z,84.87
2023-01-12T12:30:59.676Z,84.97
2023-01-12T12:31:59.696Z,84.77
2023-01-12T12:32:59.608Z,84.87
2023-01-12T12:33:59.616Z,84.66
2023-01-12T12:34:59.575Z,84.77
2023-01-12T12:35:59.599Z,84.56
2023-01-12T12:36:59.578Z,84.66
2023-01-12T12:37:59.569Z,84.66
2023-01-12T12:38:59.517Z,85.07
2023-01-12T12:39:59.531Z,85.48
2023-01-12T12:40:59.493Z,85.89
2023-01-12T12:41:59.545Z,85.89
2023-01-12T12:42:59.504Z,85.69
2023-01-12T12:43:59.474Z,85.89
2023-01-12T12:44:59.442Z,86.20
2023-01-12T12:45:59.478Z,85.69
2023-01-12T12:46:59.425Z,85.38
2023-01-12T12:47:59.451Z,85.38
2023-01-12T12:48:59.380Z,84.97
2023-01-12T12:49:59.384Z,84.97
2023-01-12T12:50:59.353Z,85.28
2023-01-12T12:51:59.387Z,85.17